sensor_id;sensor_type;location;lat;lon;timestamp;pressure;altitude;pressure_sealevel;temperature;humidity
59877;BME280;74472;51.140;17.184;2024-03-06T00:01:42;100420.88;;;6.53;82.85
59877;BME280;74472;51.140;17.184;2024-03-06T00:04:07;100415.47;;;6.56;82.87
59877;BME280;74472;51.140;17.184;2024-03-06T00:06:32;100415.28;;;6.60;82.92
59877;BME280;74472;51.140;17.184;2024-03-06T00:08:58;100424.63;;;6.65;82.74
59877;BME280;74472;51.140;17.184;2024-03-06T00:11:24;100418.69;;;6.62;82.55
59877;BME280;74472;51.140;17.184;2024-03-06T00:13:49;100421.47;;;6.58;82.72
59877;BME280;74472;51.140;17.184;2024-03-06T00:16:15;100418.94;;;6.57;82.65
59877;BME280;74472;51.140;17.184;2024-03-06T00:18:40;100426.78;;;6.57;82.82
59877;BME280;74472;51.140;17.184;2024-03-06T00:21:06;100433.66;;;6.60;82.53
59877;BME280;74472;51.140;17.184;2024-03-06T00:23:32;100416.31;;;6.57;82.92
59877;BME280;74472;51.140;17.184;2024-03-06T00:25:57;100422.38;;;6.57;82.83
59877;BME280;74472;51.140;17.184;2024-03-06T00:28:23;100428.41;;;6.60;82.89
59877;BME280;74472;51.140;17.184;2024-03-06T00:30:49;100438.06;;;6.59;82.85
59877;BME280;74472;51.140;17.184;2024-03-06T00:33:14;100427.13;;;6.51;82.82
59877;BME280;74472;51.140;17.184;2024-03-06T00:35:40;100427.88;;;6.53;82.85
59877;BME280;74472;51.140;17.184;2024-03-06T00:38:05;100425.34;;;6.51;83.26
59877;BME280;74472;51.140;17.184;2024-03-06T00:40:31;100430.50;;;6.53;82.92
59877;BME280;74472;51.140;17.184;2024-03-06T00:42:57;100426.28;;;6.50;83.13
59877;BME280;74472;51.140;17.184;2024-03-06T00:45:23;100428.84;;;6.52;83.05
59877;BME280;74472;51.140;17.184;2024-03-06T00:47:48;100427.88;;;6.53;83.21
59877;BME280;74472;51.140;17.184;2024-03-06T00:50:13;100431.34;;;6.53;83.14
59877;BME280;74472;51.140;17.184;2024-03-06T00:52:39;100432.88;;;6.57;83.18
59877;BME280;74472;51.140;17.184;2024-03-06T00:55:04;100436.44;;;6.56;82.89
59877;BME280;74472;51.140;17.184;2024-03-06T00:57:30;100434.81;;;6.54;82.90
59877;BME280;74472;51.140;17.184;2024-03-06T00:59:56;100440.22;;;6.51;82.93
59877;BME280;74472;51.140;17.184;2024-03-06T01:02:21;100433.41;;;6.48;82.92
59877;BME280;74472;51.140;17.184;2024-03-06T01:04:46;100436.88;;;6.49;83.29
59877;BME280;74472;51.140;17.184;2024-03-06T01:07:12;100440.31;;;6.49;82.91
59877;BME280;74472;51.140;17.184;2024-03-06T01:09:37;100435.06;;;6.49;83.05
59877;BME280;74472;51.140;17.184;2024-03-06T01:12:02;100437.59;;;6.51;83.16
59877;BME280;74472;51.140;17.184;2024-03-06T01:14:28;100434.31;;;6.47;83.12
59877;BME280;74472;51.140;17.184;2024-03-06T01:16:53;100441.25;;;6.48;83.26
59877;BME280;74472;51.140;17.184;2024-03-06T01:19:18;100444.03;;;6.45;83.27
59877;BME280;74472;51.140;17.184;2024-03-06T01:21:44;100447.41;;;6.47;83.28
59877;BME280;74472;51.140;17.184;2024-03-06T01:24:09;100451.03;;;6.45;83.00
59877;BME280;74472;51.140;17.184;2024-03-06T01:26:34;100452.81;;;6.44;83.10
59877;BME280;74472;51.140;17.184;2024-03-06T01:29:00;100456.53;;;6.40;83.15
59877;BME280;74472;51.140;17.184;2024-03-06T01:31:25;100454.00;;;6.39;83.20
59877;BME280;74472;51.140;17.184;2024-03-06T01:33:50;100454.91;;;6.38;83.13
59877;BME280;74472;51.140;17.184;2024-03-06T01:36:16;100460.25;;;6.36;83.62
59877;BME280;74472;51.140;17.184;2024-03-06T01:38:41;100461.94;;;6.37;83.41
59877;BME280;74472;51.140;17.184;2024-03-06T01:41:06;100466.34;;;6.37;83.19
59877;BME280;74472;51.140;17.184;2024-03-06T01:43:37;100468.28;;;6.33;83.32
59877;BME280;74472;51.140;17.184;2024-03-06T01:46:04;100470.06;;;6.32;83.29
59877;BME280;74472;51.140;17.184;2024-03-06T01:48:30;100466.59;;;6.32;83.36
59877;BME280;74472;51.140;17.184;2024-03-06T01:50:58;100469.38;;;6.29;83.20
59877;BME280;74472;51.140;17.184;2024-03-06T01:53:24;100465.03;;;6.28;83.43
59877;BME280;74472;51.140;17.184;2024-03-06T01:55:51;100472.16;;;6.26;83.15
59877;BME280;74472;51.140;17.184;2024-03-06T01:58:17;100460.91;;;6.24;83.22
59877;BME280;74472;51.140;17.184;2024-03-06T02:00:42;100463.59;;;6.22;83.34
59877;BME280;74472;51.140;17.184;2024-03-06T02:03:08;100468.16;;;6.19;83.08
59877;BME280;74472;51.140;17.184;2024-03-06T02:05:34;100466.59;;;6.15;83.08
59877;BME280;74472;51.140;17.184;2024-03-06T02:08:00;100466.84;;;6.10;83.09
59877;BME280;74472;51.140;17.184;2024-03-06T02:10:26;100462.78;;;6.04;83.21
59877;BME280;74472;51.140;17.184;2024-03-06T02:12:53;100466.38;;;6.02;83.12
59877;BME280;74472;51.140;17.184;2024-03-06T02:15:19;100465.84;;;5.95;83.24
59877;BME280;74472;51.140;17.184;2024-03-06T02:17:44;100471.41;;;5.89;83.20
59877;BME280;74472;51.140;17.184;2024-03-06T02:20:11;100465.38;;;5.87;83.18
59877;BME280;74472;51.140;17.184;2024-03-06T02:22:39;100469.25;;;5.80;83.11
59877;BME280;74472;51.140;17.184;2024-03-06T02:25:05;100467.69;;;5.76;82.93
59877;BME280;74472;51.140;17.184;2024-03-06T02:27:31;100466.31;;;5.69;83.26
59877;BME280;74472;51.140;17.184;2024-03-06T02:29:57;100464.84;;;5.63;83.15
59877;BME280;74472;51.140;17.184;2024-03-06T02:32:23;100467.63;;;5.60;83.26
59877;BME280;74472;51.140;17.184;2024-03-06T02:34:49;100469.47;;;5.58;83.05
59877;BME280;74472;51.140;17.184;2024-03-06T02:37:15;100472.38;;;5.52;83.07
59877;BME280;74472;51.140;17.184;2024-03-06T02:39:40;100473.38;;;5.49;83.00
59877;BME280;74472;51.140;17.184;2024-03-06T02:42:06;100471.06;;;5.43;82.94
59877;BME280;74472;51.140;17.184;2024-03-06T02:44:32;100476.59;;;5.37;83.08
59877;BME280;74472;51.140;17.184;2024-03-06T02:46:58;100472.41;;;5.33;83.03
59877;BME280;74472;51.140;17.184;2024-03-06T02:49:24;100470.88;;;5.29;83.10
59877;BME280;74472;51.140;17.184;2024-03-06T02:51:49;100476.34;;;5.24;83.03
59877;BME280;74472;51.140;17.184;2024-03-06T02:54:14;100475.66;;;5.21;83.03
59877;BME280;74472;51.140;17.184;2024-03-06T02:56:40;100481.03;;;5.17;83.05
59877;BME280;74472;51.140;17.184;2024-03-06T02:59:05;100476.88;;;5.13;83.00
59877;BME280;74472;51.140;17.184;2024-03-06T03:01:30;100485.84;;;5.08;83.00
59877;BME280;74472;51.140;17.184;2024-03-06T03:03:56;100483.50;;;5.02;83.10
59877;BME280;74472;51.140;17.184;2024-03-06T03:06:22;100488.25;;;4.93;82.89
59877;BME280;74472;51.140;17.184;2024-03-06T03:08:49;100484.31;;;4.85;82.99
59877;BME280;74472;51.140;17.184;2024-03-06T03:11:14;100483.66;;;4.80;83.21
59877;BME280;74472;51.140;17.184;2024-03-06T03:13:41;100487.47;;;4.73;82.99
59877;BME280;74472;51.140;17.184;2024-03-06T03:16:06;100494.69;;;4.67;82.95
59877;BME280;74472;51.140;17.184;2024-03-06T03:18:32;100491.50;;;4.61;83.07
59877;BME280;74472;51.140;17.184;2024-03-06T03:20:57;100496.88;;;4.58;83.10
59877;BME280;74472;51.140;17.184;2024-03-06T03:23:23;100494.44;;;4.53;83.22
59877;BME280;74472;51.140;17.184;2024-03-06T03:25:48;100488.66;;;4.46;82.94
59877;BME280;74472;51.140;17.184;2024-03-06T03:28:14;100492.31;;;4.42;83.10
59877;BME280;74472;51.140;17.184;2024-03-06T03:30:39;100492.59;;;4.36;83.20
59877;BME280;74472;51.140;17.184;2024-03-06T03:33:05;100498.88;;;4.32;83.42
59877;BME280;74472;51.140;17.184;2024-03-06T03:35:30;100508.66;;;4.27;83.92
59877;BME280;74472;51.140;17.184;2024-03-06T03:37:57;100507.19;;;4.21;83.32
59877;BME280;74472;51.140;17.184;2024-03-06T03:40:22;100508.22;;;4.17;83.26
59877;BME280;74472;51.140;17.184;2024-03-06T03:42:48;100510.19;;;4.12;83.18
59877;BME280;74472;51.140;17.184;2024-03-06T03:45:13;100513.06;;;4.06;83.06
59877;BME280;74472;51.140;17.184;2024-03-06T03:47:40;100513.19;;;4.03;83.61
59877;BME280;74472;51.140;17.184;2024-03-06T03:50:05;100517.69;;;3.99;83.28
59877;BME280;74472;51.140;17.184;2024-03-06T03:52:31;100517.81;;;3.96;83.28
59877;BME280;74472;51.140;17.184;2024-03-06T03:54:56;100515.34;;;3.93;83.53
59877;BME280;74472;51.140;17.184;2024-03-06T03:57:22;100519.84;;;3.90;83.31
59877;BME280;74472;51.140;17.184;2024-03-06T03:59:47;100510.56;;;3.83;83.17
59877;BME280;74472;51.140;17.184;2024-03-06T04:02:12;100518.59;;;3.78;83.30
59877;BME280;74472;51.140;17.184;2024-03-06T04:04:38;100523.09;;;3.74;83.59
59877;BME280;74472;51.140;17.184;2024-03-06T04:07:03;100524.94;;;3.72;83.71
59877;BME280;74472;51.140;17.184;2024-03-06T04:09:30;100524.97;;;3.71;83.44
59877;BME280;74472;51.140;17.184;2024-03-06T04:11:55;100523.34;;;3.68;83.41
59877;BME280;74472;51.140;17.184;2024-03-06T04:14:20;100526.94;;;3.66;83.28
59877;BME280;74472;51.140;17.184;2024-03-06T04:16:46;100534.03;;;3.62;83.37
59877;BME280;74472;51.140;17.184;2024-03-06T04:19:11;100526.47;;;3.56;83.55
59877;BME280;74472;51.140;17.184;2024-03-06T04:21:46;100529.19;;;3.53;83.12
59877;BME280;74472;51.140;17.184;2024-03-06T04:24:11;100531.06;;;3.49;83.20
59877;BME280;74472;51.140;17.184;2024-03-06T04:26:36;100526.88;;;3.45;83.25
59877;BME280;74472;51.140;17.184;2024-03-06T04:29:01;100530.59;;;3.40;83.07
59877;BME280;74472;51.140;17.184;2024-03-06T04:31:28;100538.53;;;3.37;83.28
59877;BME280;74472;51.140;17.184;2024-03-06T04:33:53;100543.06;;;3.32;83.32
59877;BME280;74472;51.140;17.184;2024-03-06T04:36:18;100537.22;;;3.26;83.20
59877;BME280;74472;51.140;17.184;2024-03-06T04:38:44;100539.13;;;3.21;83.14
59877;BME280;74472;51.140;17.184;2024-03-06T04:41:09;100540.97;;;3.19;83.22
59877;BME280;74472;51.140;17.184;2024-03-06T04:43:35;100548.91;;;3.16;83.33
59877;BME280;74472;51.140;17.184;2024-03-06T04:46:01;100547.28;;;3.12;83.39
59877;BME280;74472;51.140;17.184;2024-03-06T04:48:26;100545.59;;;3.11;83.29
59877;BME280;74472;51.140;17.184;2024-03-06T04:50:52;100556.16;;;3.08;83.39
59877;BME280;74472;51.140;17.184;2024-03-06T04:53:18;100548.53;;;3.03;83.64
59877;BME280;74472;51.140;17.184;2024-03-06T04:55:45;100550.41;;;3.00;83.38
59877;BME280;74472;51.140;17.184;2024-03-06T04:58:10;100560.25;;;2.92;83.92
59877;BME280;74472;51.140;17.184;2024-03-06T05:00:36;100563.59;;;2.95;83.65
59877;BME280;74472;51.140;17.184;2024-03-06T05:03:01;100556.72;;;2.93;83.50
59877;BME280;74472;51.140;17.184;2024-03-06T05:05:26;100565.53;;;2.90;83.75
59877;BME280;74472;51.140;17.184;2024-03-06T05:07:52;100574.31;;;2.88;83.45
59877;BME280;74472;51.140;17.184;2024-03-06T05:10:17;100578.72;;;2.86;83.77
59877;BME280;74472;51.140;17.184;2024-03-06T05:12:43;100574.34;;;2.86;83.79
59877;BME280;74472;51.140;17.184;2024-03-06T05:15:09;100576.94;;;2.86;83.86
59877;BME280;74472;51.140;17.184;2024-03-06T05:17:35;100571.81;;;2.85;83.75
59877;BME280;74472;51.140;17.184;2024-03-06T05:20:00;100579.56;;;2.86;83.98
59877;BME280;74472;51.140;17.184;2024-03-06T05:22:25;100572.63;;;2.87;83.82
59877;BME280;74472;51.140;17.184;2024-03-06T05:24:51;100581.31;;;2.86;83.84
59877;BME280;74472;51.140;17.184;2024-03-06T05:27:18;100569.31;;;2.81;83.84
59877;BME280;74472;51.140;17.184;2024-03-06T05:29:44;100577.25;;;2.78;83.73
59877;BME280;74472;51.140;17.184;2024-03-06T05:32:09;100581.59;;;2.78;83.83
59877;BME280;74472;51.140;17.184;2024-03-06T05:34:35;100585.16;;;2.75;84.00
59877;BME280;74472;51.140;17.184;2024-03-06T05:37:01;100580.06;;;2.72;83.98
59877;BME280;74472;51.140;17.184;2024-03-06T05:39:27;100586.19;;;2.71;83.99
59877;BME280;74472;51.140;17.184;2024-03-06T05:41:54;100581.91;;;2.70;84.13
59877;BME280;74472;51.140;17.184;2024-03-06T05:44:19;100591.44;;;2.70;84.16
59877;BME280;74472;51.140;17.184;2024-03-06T05:46:45;100587.22;;;2.67;84.08
59877;BME280;74472;51.140;17.184;2024-03-06T05:49:10;100591.63;;;2.65;84.44
59877;BME280;74472;51.140;17.184;2024-03-06T05:51:36;100589.84;;;2.66;84.31
59877;BME280;74472;51.140;17.184;2024-03-06T05:54:01;100594.22;;;2.65;84.24
59877;BME280;74472;51.140;17.184;2024-03-06T05:56:28;100597.75;;;2.64;84.75
59877;BME280;74472;51.140;17.184;2024-03-06T05:58:54;100594.22;;;2.65;84.97
59877;BME280;74472;51.140;17.184;2024-03-06T06:01:20;100597.69;;;2.66;84.81
59877;BME280;74472;51.140;17.184;2024-03-06T06:03:48;100601.94;;;2.68;84.96
59877;BME280;74472;51.140;17.184;2024-03-06T06:06:17;100611.28;;;2.74;84.89
59877;BME280;74472;51.140;17.184;2024-03-06T06:08:44;100609.44;;;2.77;84.92
59877;BME280;74472;51.140;17.184;2024-03-06T06:11:10;100611.94;;;2.80;84.96
59877;BME280;74472;51.140;17.184;2024-03-06T06:13:36;100607.59;;;2.79;84.88
59877;BME280;74472;51.140;17.184;2024-03-06T06:16:01;100617.03;;;2.84;85.09
59877;BME280;74472;51.140;17.184;2024-03-06T06:18:29;100618.72;;;2.85;85.06
59877;BME280;74472;51.140;17.184;2024-03-06T06:20:55;100621.22;;;2.88;84.99
59877;BME280;74472;51.140;17.184;2024-03-06T06:23:20;100621.13;;;2.91;85.03
59877;BME280;74472;51.140;17.184;2024-03-06T06:25:46;100616.56;;;2.96;85.42
59877;BME280;74472;51.140;17.184;2024-03-06T06:28:11;100632.09;;;2.99;85.29
59877;BME280;74472;51.140;17.184;2024-03-06T06:30:37;100628.66;;;2.98;84.97
59877;BME280;74472;51.140;17.184;2024-03-06T06:33:03;100630.34;;;2.99;85.32
59877;BME280;74472;51.140;17.184;2024-03-06T06:35:29;100637.31;;;2.99;85.29
59877;BME280;74472;51.140;17.184;2024-03-06T06:37:55;100638.16;;;2.99;85.18
59877;BME280;74472;51.140;17.184;2024-03-06T06:40:20;100634.72;;;2.99;85.46
59877;BME280;74472;51.140;17.184;2024-03-06T06:42:49;100643.38;;;2.99;85.59
59877;BME280;74472;51.140;17.184;2024-03-06T06:45:20;100646.97;;;2.97;85.75
59877;BME280;74472;51.140;17.184;2024-03-06T06:47:48;100646.97;;;2.97;85.65
59877;BME280;74472;51.140;17.184;2024-03-06T06:50:13;100642.53;;;2.99;85.66
59877;BME280;74472;51.140;17.184;2024-03-06T06:52:39;100648.59;;;2.99;86.01
59877;BME280;74472;51.140;17.184;2024-03-06T06:55:06;100638.13;;;3.01;85.85
59877;BME280;74472;51.140;17.184;2024-03-06T06:57:32;100645.84;;;3.04;86.05
59877;BME280;74472;51.140;17.184;2024-03-06T07:00:01;100630.00;;;3.09;86.17
59877;BME280;74472;51.140;17.184;2024-03-06T07:02:31;100639.59;;;3.08;86.07
59877;BME280;74472;51.140;17.184;2024-03-06T07:04:57;100637.81;;;3.09;86.33
59877;BME280;74472;51.140;17.184;2024-03-06T07:07:22;100637.72;;;3.12;86.31
59877;BME280;74472;51.140;17.184;2024-03-06T07:09:48;100637.69;;;3.13;86.56
59877;BME280;74472;51.140;17.184;2024-03-06T07:12:14;100638.31;;;3.20;86.81
59877;BME280;74472;51.140;17.184;2024-03-06T07:14:39;100645.03;;;3.25;86.80
59877;BME280;74472;51.140;17.184;2024-03-06T07:17:04;100642.41;;;3.25;86.55
59877;BME280;74472;51.140;17.184;2024-03-06T07:19:30;100650.31;;;3.24;86.90
59877;BME280;74472;51.140;17.184;2024-03-06T07:21:55;100649.41;;;3.25;86.63
59877;BME280;74472;51.140;17.184;2024-03-06T07:24:20;100649.25;;;3.29;87.03
59877;BME280;74472;51.140;17.184;2024-03-06T07:26:46;100648.13;;;3.35;87.21
59877;BME280;74472;51.140;17.184;2024-03-06T07:29:11;100648.72;;;3.43;87.10
59877;BME280;74472;51.140;17.184;2024-03-06T07:31:42;100646.88;;;3.45;87.29
59877;BME280;74472;51.140;17.184;2024-03-06T07:34:09;100658.97;;;3.48;87.21
59877;BME280;74472;51.140;17.184;2024-03-06T07:36:34;100658.00;;;3.50;87.53
59877;BME280;74472;51.140;17.184;2024-03-06T07:39:01;100656.09;;;3.56;87.59
59877;BME280;74472;51.140;17.184;2024-03-06T07:41:26;100654.25;;;3.58;87.60
59877;BME280;74472;51.140;17.184;2024-03-06T07:43:52;100657.59;;;3.61;87.63
59877;BME280;74472;51.140;17.184;2024-03-06T07:46:17;100661.81;;;3.65;87.92
59877;BME280;74472;51.140;17.184;2024-03-06T07:48:43;100663.31;;;3.71;87.75
59877;BME280;74472;51.140;17.184;2024-03-06T07:51:11;100664.94;;;3.73;88.00
59877;BME280;74472;51.140;17.184;2024-03-06T07:53:36;100647.53;;;3.74;88.25
59877;BME280;74472;51.140;17.184;2024-03-06T07:56:05;100655.91;;;3.82;88.47
59877;BME280;74472;51.140;17.184;2024-03-06T07:58:30;100656.56;;;3.87;88.44
59877;BME280;74472;51.140;17.184;2024-03-06T08:00:56;100662.53;;;3.91;88.21
59877;BME280;74472;51.140;17.184;2024-03-06T08:03:22;100667.59;;;3.95;88.30
59877;BME280;74472;51.140;17.184;2024-03-06T08:05:51;100662.88;;;4.04;88.38
59877;BME280;74472;51.140;17.184;2024-03-06T08:08:20;100666.06;;;4.12;88.60
59877;BME280;74472;51.140;17.184;2024-03-06T08:10:46;100665.72;;;4.19;88.52
59877;BME280;74472;51.140;17.184;2024-03-06T08:13:11;100667.19;;;4.27;88.32
59877;BME280;74472;51.140;17.184;2024-03-06T08:15:36;100670.50;;;4.30;87.93
59877;BME280;74472;51.140;17.184;2024-03-06T08:18:02;100670.34;;;4.35;87.83
59877;BME280;74472;51.140;17.184;2024-03-06T08:20:29;100673.72;;;4.37;88.11
59877;BME280;74472;51.140;17.184;2024-03-06T08:22:55;100671.78;;;4.42;87.76
59877;BME280;74472;51.140;17.184;2024-03-06T08:25:21;100668.78;;;4.51;87.96
59877;BME280;74472;51.140;17.184;2024-03-06T08:27:47;100670.09;;;4.61;87.67
59877;BME280;74472;51.140;17.184;2024-03-06T08:30:12;100672.47;;;4.67;87.47
59877;BME280;74472;51.140;17.184;2024-03-06T08:32:38;100673.03;;;4.74;87.55
59877;BME280;74472;51.140;17.184;2024-03-06T08:35:04;100670.22;;;4.79;87.43
59877;BME280;74472;51.140;17.184;2024-03-06T08:37:32;100663.81;;;4.86;87.06
59877;BME280;74472;51.140;17.184;2024-03-06T08:39:59;100667.72;;;4.96;87.41
59877;BME280;74472;51.140;17.184;2024-03-06T08:42:24;100671.75;;;5.03;87.20
59877;BME280;74472;51.140;17.184;2024-03-06T08:44:49;100675.94;;;5.07;86.32
59877;BME280;74472;51.140;17.184;2024-03-06T08:47:15;100675.88;;;5.09;86.77
59877;BME280;74472;51.140;17.184;2024-03-06T08:49:40;100666.81;;;5.16;86.58
59877;BME280;74472;51.140;17.184;2024-03-06T08:52:06;100670.94;;;5.22;86.94
59877;BME280;74472;51.140;17.184;2024-03-06T08:54:31;100676.84;;;5.27;86.22
59877;BME280;74472;51.140;17.184;2024-03-06T08:56:57;100667.97;;;5.29;86.28
59877;BME280;74472;51.140;17.184;2024-03-06T08:59:24;100671.16;;;5.36;86.34
59877;BME280;74472;51.140;17.184;2024-03-06T09:01:54;100672.59;;;5.43;86.10
59877;BME280;74472;51.140;17.184;2024-03-06T09:04:20;100680.00;;;5.52;85.60
59877;BME280;74472;51.140;17.184;2024-03-06T09:06:45;100678.84;;;5.59;85.80
59877;BME280;74472;51.140;17.184;2024-03-06T09:09:10;100672.16;;;5.71;86.60
59877;BME280;74472;51.140;17.184;2024-03-06T09:11:36;100674.06;;;5.86;87.01
59877;BME280;74472;51.140;17.184;2024-03-06T09:14:01;100673.44;;;6.00;85.64
59877;BME280;74472;51.140;17.184;2024-03-06T09:16:26;100672.31;;;6.06;84.57
59877;BME280;74472;51.140;17.184;2024-03-06T09:18:52;100677.31;;;6.10;84.29
59877;BME280;74472;51.140;17.184;2024-03-06T09:21:17;100670.13;;;6.14;82.92
59877;BME280;74472;51.140;17.184;2024-03-06T09:23:43;100670.09;;;6.16;83.32
59877;BME280;74472;51.140;17.184;2024-03-06T09:26:08;100677.63;;;6.22;83.52
59877;BME280;74472;51.140;17.184;2024-03-06T09:28:33;100670.47;;;6.25;83.02
59877;BME280;74472;51.140;17.184;2024-03-06T09:30:59;100675.63;;;6.27;82.57
59877;BME280;74472;51.140;17.184;2024-03-06T09:33:25;100677.03;;;6.34;82.89
59877;BME280;74472;51.140;17.184;2024-03-06T09:35:50;100671.63;;;6.37;81.85
59877;BME280;74472;51.140;17.184;2024-03-06T09:38:16;100674.78;;;6.44;81.89
59877;BME280;74472;51.140;17.184;2024-03-06T09:40:41;100680.44;;;6.53;81.67
59877;BME280;74472;51.140;17.184;2024-03-06T09:43:07;100677.50;;;6.60;81.60
59877;BME280;74472;51.140;17.184;2024-03-06T09:45:33;100679.72;;;6.67;80.65
59877;BME280;74472;51.140;17.184;2024-03-06T09:47:58;100684.66;;;6.73;80.55
59877;BME280;74472;51.140;17.184;2024-03-06T09:50:24;100679.09;;;6.79;81.01
59877;BME280;74472;51.140;17.184;2024-03-06T09:52:52;100682.78;;;6.93;80.09
59877;BME280;74472;51.140;17.184;2024-03-06T09:55:20;100694.75;;;6.98;79.83
59877;BME280;74472;51.140;17.184;2024-03-06T09:57:45;100692.72;;;7.03;79.46
59877;BME280;74472;51.140;17.184;2024-03-06T10:00:11;100686.41;;;7.08;79.10
59877;BME280;74472;51.140;17.184;2024-03-06T10:02:52;100698.34;;;7.13;79.11
59877;BME280;74472;51.140;17.184;2024-03-06T10:05:23;100693.78;;;7.17;79.42
59877;BME280;74472;51.140;17.184;2024-03-06T10:07:52;100704.81;;;7.23;79.31
59877;BME280;74472;51.140;17.184;2024-03-06T10:10:19;100701.84;;;7.29;79.11
59877;BME280;74472;51.140;17.184;2024-03-06T10:12:45;100697.13;;;7.36;79.15
59877;BME280;74472;51.140;17.184;2024-03-06T10:15:13;100699.59;;;7.39;78.59
59877;BME280;74472;51.140;17.184;2024-03-06T10:17:38;100704.09;;;7.37;78.06
59877;BME280;74472;51.140;17.184;2024-03-06T10:20:23;100700.84;;;7.32;78.10
59877;BME280;74472;51.140;17.184;2024-03-06T10:22:49;100707.78;;;7.33;78.01
59877;BME280;74472;51.140;17.184;2024-03-06T10:25:18;100712.13;;;7.34;77.17
59877;BME280;74472;51.140;17.184;2024-03-06T10:27:44;100709.84;;;7.28;77.15
59877;BME280;74472;51.140;17.184;2024-03-06T10:30:09;100716.19;;;7.24;77.28
59877;BME280;74472;51.140;17.184;2024-03-06T10:32:38;100712.63;;;7.25;77.50
59877;BME280;74472;51.140;17.184;2024-03-06T10:35:04;100716.34;;;7.21;76.99
59877;BME280;74472;51.140;17.184;2024-03-06T10:37:32;100716.66;;;7.15;77.22
59877;BME280;74472;51.140;17.184;2024-03-06T10:40:02;100716.88;;;7.10;77.75
59877;BME280;74472;51.140;17.184;2024-03-06T10:42:31;100716.28;;;7.05;78.06
59877;BME280;74472;51.140;17.184;2024-03-06T10:44:59;100722.44;;;7.04;78.54
59877;BME280;74472;51.140;17.184;2024-03-06T10:47:26;100720.75;;;7.03;78.96
59877;BME280;74472;51.140;17.184;2024-03-06T10:49:53;100719.28;;;6.97;78.89
59877;BME280;74472;51.140;17.184;2024-03-06T10:52:21;100719.38;;;6.96;79.26
59877;BME280;74472;51.140;17.184;2024-03-06T10:54:47;100717.75;;;6.93;79.45
59877;BME280;74472;51.140;17.184;2024-03-06T10:57:14;100718.59;;;6.94;79.54
59877;BME280;74472;51.140;17.184;2024-03-06T10:59:40;100722.16;;;6.93;79.64
59877;BME280;74472;51.140;17.184;2024-03-06T11:02:08;100722.16;;;6.93;80.10
59877;BME280;74472;51.140;17.184;2024-03-06T11:04:33;100722.09;;;6.94;80.29
59877;BME280;74472;51.140;17.184;2024-03-06T11:07:00;100720.22;;;6.96;80.24
59877;BME280;74472;51.140;17.184;2024-03-06T11:09:27;100722.69;;;6.99;80.62
59877;BME280;74472;51.140;17.184;2024-03-06T11:11:54;100720.69;;;7.04;80.45
59877;BME280;74472;51.140;17.184;2024-03-06T11:14:23;100716.03;;;7.10;80.58
59877;BME280;74472;51.140;17.184;2024-03-06T11:17:20;100721.22;;;7.11;80.41
59877;BME280;74472;51.140;17.184;2024-03-06T11:28:18;100720.66;;;7.22;78.39
59877;BME280;74472;51.140;17.184;2024-03-06T11:30:48;100713.03;;;7.17;78.65
59877;BME280;74472;51.140;17.184;2024-03-06T11:33:16;100715.56;;;7.19;78.53
59877;BME280;74472;51.140;17.184;2024-03-06T11:35:42;100713.56;;;7.24;78.54
59877;BME280;74472;51.140;17.184;2024-03-06T11:38:17;100708.31;;;7.24;78.16
59877;BME280;74472;51.140;17.184;2024-03-06T11:40:43;100711.00;;;7.22;77.87
59877;BME280;74472;51.140;17.184;2024-03-06T11:43:25;100711.94;;;7.21;77.39
59877;BME280;74472;51.140;17.184;2024-03-06T11:45:51;100705.84;;;7.21;77.52
59877;BME280;74472;51.140;17.184;2024-03-06T11:48:17;100703.13;;;7.22;77.56
59877;BME280;74472;51.140;17.184;2024-03-06T11:50:45;100691.69;;;7.23;77.81
59877;BME280;74472;51.140;17.184;2024-03-06T11:53:12;100708.41;;;7.38;78.25
59877;BME280;74472;51.140;17.184;2024-03-06T11:55:38;100698.59;;;7.42;77.92
59877;BME280;74472;51.140;17.184;2024-03-06T11:58:04;100691.66;;;7.41;77.85
59877;BME280;74472;51.140;17.184;2024-03-06T12:00:30;100691.66;;;7.41;77.62
59877;BME280;74472;51.140;17.184;2024-03-06T12:02:55;100686.97;;;7.46;77.98
59877;BME280;74472;51.140;17.184;2024-03-06T12:05:22;100686.97;;;7.46;77.72
59877;BME280;74472;51.140;17.184;2024-03-06T12:07:50;100693.06;;;7.46;77.70
59877;BME280;74472;51.140;17.184;2024-03-06T12:10:17;100691.84;;;7.54;77.81
59877;BME280;74472;51.140;17.184;2024-03-06T12:12:43;100683.69;;;7.58;78.02
59877;BME280;74472;51.140;17.184;2024-03-06T12:15:10;100686.41;;;7.57;76.97
59877;BME280;74472;51.140;17.184;2024-03-06T12:17:48;100692.53;;;7.57;76.82
59877;BME280;74472;51.140;17.184;2024-03-06T12:20:17;100690.06;;;7.54;76.91
59877;BME280;74472;51.140;17.184;2024-03-06T12:22:48;100690.13;;;7.52;77.10
59877;BME280;74472;51.140;17.184;2024-03-06T12:25:24;100688.34;;;7.53;76.96
59877;BME280;74472;51.140;17.184;2024-03-06T12:27:54;100683.19;;;7.51;77.66
59877;BME280;74472;51.140;17.184;2024-03-06T12:30:22;100684.13;;;7.50;76.97
59877;BME280;74472;51.140;17.184;2024-03-06T12:32:57;100681.81;;;7.44;76.78
59877;BME280;74472;51.140;17.184;2024-03-06T12:35:27;100692.66;;;7.38;77.06
59877;BME280;74472;51.140;17.184;2024-03-06T12:37:52;100691.03;;;7.36;77.06
59877;BME280;74472;51.140;17.184;2024-03-06T12:40:20;100690.19;;;7.35;77.22
59877;BME280;74472;51.140;17.184;2024-03-06T12:42:46;100685.88;;;7.34;77.00
59877;BME280;74472;51.140;17.184;2024-03-06T12:45:12;100689.41;;;7.33;77.29
59877;BME280;74472;51.140;17.184;2024-03-06T12:47:44;100692.19;;;7.30;76.88
59877;BME280;74472;51.140;17.184;2024-03-06T12:50:13;100691.69;;;7.23;77.10
59877;BME280;74472;51.140;17.184;2024-03-06T12:52:40;100691.00;;;7.20;76.82
59877;BME280;74472;51.140;17.184;2024-03-06T12:55:06;100692.88;;;7.18;77.22